West Fargo, ND

6:40 PM CDT on August 27, 2014 (GMT -0500)
KNDFARGO12 | Change Station
CLOSE
Current Station
Personal Weather Station
Location: Fargo, ND
Elevation: 901 ft
Nearby Weather Stations

Elev 901 ft 46.87 °N, 96.86 °W | Updated 5 seconds ago

Overcast
Overcast
75.6 °F
Feels Like 78 °F
N
0.0
Wind Variable Wind from SSW
Gusts 4.0 mph

Today
High -- | Low -- °F
--% Chance of Precip.
Yesterday
High -- | Low -- °F
Precip. -- in
6:40 AM 8:16 PM
Waxing Crescent, 5% visible
Pressure 30.10 in
Visibility 10.0 miles
Clouds Overcast 4400 ft
Heat Index 78 °F
Dew Point 60 °F
Humidity 58%
Rainfall 0.00 in
Snow Depth Not available.
UV 1 out of 12
Pollen 10.00 out of 12
Air Quality Not available.
Flu Activity Not available.
METAR KFAR 272253Z AUTO 16010KT 10SM OVC044 23/14 A3009 RMK AO2 SLP192 T02280144 TSNO

More Conditions Fewer Conditions

Pressure 30.10 in
Visibility 10.0 miles
Clouds Overcast 4400 ft
Heat Index 78 °F
Dew Point 60 °F
Humidity 58%
Rainfall 0.00 in
Snow Depth Not available.
UV 1 out of 12
Pollen 10.00 out of 12
Air Quality Not available.
Flu Activity Not available.
METAR KFAR 272253Z AUTO 16010KT 10SM OVC044 23/14 A3009 RMK AO2 SLP192 T02280144 TSNO

More Conditions Fewer Conditions

10-Day Weather Forecast

Almanac

Astronomy

Aug. 27, 2014 Rise Set
Actual Time 6:40 AM CDT 8:16 PM CDT
Civil Twilight 6:08 AM CDT 8:48 PM CDT
Nautical Twilight 5:29 AM CDT 9:26 PM CDT
Astronomical Twilight 4:47 AM CDT 10:08 PM CDT
Moon 8:48 AM CDT 8:57 PM CDT
Length of Visible Light 14h 39m
Length of Day
13h 35m
Tomorrow will be 3m 10s shorter.
Waxing Crescent, 5% of the Moon is Illuminated
Today
Waxing Crescent
Sep 2
First Quarter
Sep 8
Full
Sep 15
Last Quarter
Sep 24
New

Today's Extremes

State Highs State Lows

Community

WunderPhotos

Upload Photos

1,747,816 photos uploaded!

Nearby

Snow Depth

Station Depth Elevation
No new snow has been reported.

Earthquake Activity

City Distance Mag. Time & Date
No recent earthquake activity has been reported nearby.
Minimum magnitude displayed is 2.5.

Coastal Water Temperatures

Place Temperature
No Stations Reporting

Nearby Weather Stations